sensor_id;sensor_type;location;lat;lon;timestamp;noise_LAeq;noise_LA_min;noise_LA_max;noise_LA01;noise_LA95
64077;Laerm;51039;49.696;10.808;2023-03-16T00:01:38;35.03;33.80;36.19;;
64077;Laerm;51039;49.696;10.808;2023-03-16T00:04:03;35.05;33.73;36.09;;
64077;Laerm;51039;49.696;10.808;2023-03-16T00:06:28;35.08;33.84;36.28;;
64077;Laerm;51039;49.696;10.808;2023-03-16T00:08:54;35.12;33.75;36.44;;
64077;Laerm;51039;49.696;10.808;2023-03-16T00:11:24;35.13;34.00;36.38;;
64077;Laerm;51039;49.696;10.808;2023-03-16T00:13:50;35.15;33.95;36.16;;
64077;Laerm;51039;49.696;10.808;2023-03-16T00:16:15;35.16;33.91;36.30;;
64077;Laerm;51039;49.696;10.808;2023-03-16T00:18:41;35.18;33.90;36.22;;
64077;Laerm;51039;49.696;10.808;2023-03-16T00:21:06;35.18;34.08;36.31;;
64077;Laerm;51039;49.696;10.808;2023-03-16T00:23:32;35.21;34.11;36.30;;
64077;Laerm;51039;49.696;10.808;2023-03-16T00:26:02;35.21;33.77;36.37;;
64077;Laerm;51039;49.696;10.808;2023-03-16T00:28:29;35.24;34.03;36.44;;
64077;Laerm;51039;49.696;10.808;2023-03-16T00:31:00;35.25;34.12;36.49;;
64077;Laerm;51039;49.696;10.808;2023-03-16T00:33:26;35.25;34.05;36.33;;
64077;Laerm;51039;49.696;10.808;2023-03-16T00:35:51;35.26;34.03;36.61;;
64077;Laerm;51039;49.696;10.808;2023-03-16T00:38:26;35.25;34.02;36.43;;
64077;Laerm;51039;49.696;10.808;2023-03-16T00:40:52;35.24;33.98;36.38;;
64077;Laerm;51039;49.696;10.808;2023-03-16T00:43:17;35.24;34.05;36.31;;
64077;Laerm;51039;49.696;10.808;2023-03-16T00:45:42;35.25;33.85;36.26;;
64077;Laerm;51039;49.696;10.808;2023-03-16T00:48:09;35.25;33.99;36.37;;
64077;Laerm;51039;49.696;10.808;2023-03-16T00:50:35;35.25;34.01;36.33;;
64077;Laerm;51039;49.696;10.808;2023-03-16T00:53:00;35.24;33.93;36.38;;
64077;Laerm;51039;49.696;10.808;2023-03-16T00:55:26;35.24;33.94;36.28;;
64077;Laerm;51039;49.696;10.808;2023-03-16T00:57:51;35.24;34.09;36.35;;
64077;Laerm;51039;49.696;10.808;2023-03-16T01:00:17;35.23;34.13;36.41;;
64077;Laerm;51039;49.696;10.808;2023-03-16T01:02:45;35.22;33.96;36.47;;
64077;Laerm;51039;49.696;10.808;2023-03-16T01:05:11;35.23;34.03;36.41;;
64077;Laerm;51039;49.696;10.808;2023-03-16T01:07:38;35.22;34.11;36.43;;
64077;Laerm;51039;49.696;10.808;2023-03-16T01:10:03;35.22;34.08;36.46;;
64077;Laerm;51039;49.696;10.808;2023-03-16T01:12:29;35.21;33.96;36.27;;
64077;Laerm;51039;49.696;10.808;2023-03-16T01:14:54;35.21;34.04;36.40;;
64077;Laerm;51039;49.696;10.808;2023-03-16T01:17:20;35.20;33.90;36.35;;
64077;Laerm;51039;49.696;10.808;2023-03-16T01:19:47;35.20;34.07;36.37;;
64077;Laerm;51039;49.696;10.808;2023-03-16T01:22:13;35.18;34.06;36.40;;
64077;Laerm;51039;49.696;10.808;2023-03-16T01:24:40;35.17;34.03;36.32;;
64077;Laerm;51039;49.696;10.808;2023-03-16T01:27:06;35.16;33.76;36.31;;
64077;Laerm;51039;49.696;10.808;2023-03-16T01:29:32;35.14;33.78;36.47;;
64077;Laerm;51039;49.696;10.808;2023-03-16T01:31:58;35.13;33.93;36.07;;
64077;Laerm;51039;49.696;10.808;2023-03-16T01:34:23;35.12;33.95;36.18;;
64077;Laerm;51039;49.696;10.808;2023-03-16T01:36:49;35.11;34.13;36.14;;
64077;Laerm;51039;49.696;10.808;2023-03-16T01:39:15;35.11;33.85;36.23;;
64077;Laerm;51039;49.696;10.808;2023-03-16T01:41:42;35.12;33.99;36.30;;
64077;Laerm;51039;49.696;10.808;2023-03-16T01:44:17;35.11;33.75;36.39;;
64077;Laerm;51039;49.696;10.808;2023-03-16T01:46:46;35.10;33.82;36.16;;
64077;Laerm;51039;49.696;10.808;2023-03-16T01:49:34;35.11;33.65;36.32;;
64077;Laerm;51039;49.696;10.808;2023-03-16T01:54:35;35.09;33.95;36.08;;
64077;Laerm;51039;49.696;10.808;2023-03-16T01:57:05;35.09;33.89;36.14;;
64077;Laerm;51039;49.696;10.808;2023-03-16T01:59:38;35.09;33.96;36.22;;
64077;Laerm;51039;49.696;10.808;2023-03-16T02:02:08;35.08;33.82;36.27;;
64077;Laerm;51039;49.696;10.808;2023-03-16T02:05:12;35.09;33.91;36.42;;
64077;Laerm;51039;49.696;10.808;2023-03-16T02:07:42;35.08;33.94;36.29;;
64077;Laerm;51039;49.696;10.808;2023-03-16T02:10:12;35.08;33.94;36.35;;
64077;Laerm;51039;49.696;10.808;2023-03-16T02:12:38;35.08;33.92;36.51;;
64077;Laerm;51039;49.696;10.808;2023-03-16T02:15:04;35.09;33.85;36.13;;
64077;Laerm;51039;49.696;10.808;2023-03-16T02:17:31;35.10;33.76;36.15;;
64077;Laerm;51039;49.696;10.808;2023-03-16T02:22:57;35.11;33.82;36.22;;
64077;Laerm;51039;49.696;10.808;2023-03-16T02:25:27;35.10;34.03;36.14;;
64077;Laerm;51039;49.696;10.808;2023-03-16T02:30:57;35.09;33.89;36.29;;
64077;Laerm;51039;49.696;10.808;2023-03-16T02:33:24;35.07;33.91;36.20;;
64077;Laerm;51039;49.696;10.808;2023-03-16T02:35:49;35.08;34.00;36.26;;
64077;Laerm;51039;49.696;10.808;2023-03-16T02:38:15;35.08;33.92;36.21;;
64077;Laerm;51039;49.696;10.808;2023-03-16T02:40:40;35.09;33.83;36.09;;
64077;Laerm;51039;49.696;10.808;2023-03-16T02:43:18;35.10;33.87;36.24;;
64077;Laerm;51039;49.696;10.808;2023-03-16T02:45:51;35.11;33.90;36.29;;
64077;Laerm;51039;49.696;10.808;2023-03-16T02:48:26;35.10;33.70;36.20;;
64077;Laerm;51039;49.696;10.808;2023-03-16T02:50:53;35.12;33.78;36.26;;
64077;Laerm;51039;49.696;10.808;2023-03-16T02:53:19;35.14;33.90;36.30;;
64077;Laerm;51039;49.696;10.808;2023-03-16T02:55:45;35.15;33.97;36.19;;
64077;Laerm;51039;49.696;10.808;2023-03-16T02:58:12;35.14;34.03;36.36;;
64077;Laerm;51039;49.696;10.808;2023-03-16T03:00:38;35.15;33.93;36.24;;
64077;Laerm;51039;49.696;10.808;2023-03-16T03:03:04;35.16;34.10;36.22;;
64077;Laerm;51039;49.696;10.808;2023-03-16T03:05:30;35.16;34.02;36.24;;
64077;Laerm;51039;49.696;10.808;2023-03-16T03:07:55;35.15;34.11;36.31;;
64077;Laerm;51039;49.696;10.808;2023-03-16T03:10:21;35.15;34.00;36.18;;
64077;Laerm;51039;49.696;10.808;2023-03-16T03:12:47;35.16;33.76;36.30;;
64077;Laerm;51039;49.696;10.808;2023-03-16T03:15:16;35.15;33.98;36.37;;
64077;Laerm;51039;49.696;10.808;2023-03-16T03:17:42;35.15;33.97;36.27;;
64077;Laerm;51039;49.696;10.808;2023-03-16T03:20:09;35.14;33.90;36.32;;
64077;Laerm;51039;49.696;10.808;2023-03-16T03:22:42;35.13;33.95;36.34;;
64077;Laerm;51039;49.696;10.808;2023-03-16T03:25:09;35.12;33.87;36.23;;
64077;Laerm;51039;49.696;10.808;2023-03-16T03:27:35;35.12;33.84;36.24;;
64077;Laerm;51039;49.696;10.808;2023-03-16T03:30:00;35.13;33.87;36.18;;
64077;Laerm;51039;49.696;10.808;2023-03-16T03:32:25;35.11;33.92;36.21;;
64077;Laerm;51039;49.696;10.808;2023-03-16T03:34:51;35.10;33.95;36.26;;
64077;Laerm;51039;49.696;10.808;2023-03-16T03:37:17;35.10;33.79;36.21;;
64077;Laerm;51039;49.696;10.808;2023-03-16T03:39:42;35.09;33.75;36.22;;
64077;Laerm;51039;49.696;10.808;2023-03-16T03:42:09;35.09;33.75;36.23;;
64077;Laerm;51039;49.696;10.808;2023-03-16T03:44:35;35.07;33.89;36.22;;
64077;Laerm;51039;49.696;10.808;2023-03-16T03:47:01;35.06;33.72;36.26;;
64077;Laerm;51039;49.696;10.808;2023-03-16T03:49:27;35.06;33.87;36.21;;
64077;Laerm;51039;49.696;10.808;2023-03-16T03:51:53;35.08;33.82;36.18;;
64077;Laerm;51039;49.696;10.808;2023-03-16T03:54:18;35.08;33.89;36.30;;
64077;Laerm;51039;49.696;10.808;2023-03-16T03:56:44;35.07;33.77;36.22;;
64077;Laerm;51039;49.696;10.808;2023-03-16T03:59:09;35.07;33.95;36.15;;
64077;Laerm;51039;49.696;10.808;2023-03-16T04:01:35;35.06;33.89;36.15;;
64077;Laerm;51039;49.696;10.808;2023-03-16T04:04:00;35.06;33.84;36.25;;
64077;Laerm;51039;49.696;10.808;2023-03-16T04:06:25;35.06;33.99;36.12;;
64077;Laerm;51039;49.696;10.808;2023-03-16T04:08:51;35.06;33.88;36.31;;
64077;Laerm;51039;49.696;10.808;2023-03-16T04:11:18;35.06;33.81;36.08;;
64077;Laerm;51039;49.696;10.808;2023-03-16T04:13:44;35.07;33.93;36.51;;
64077;Laerm;51039;49.696;10.808;2023-03-16T04:16:09;35.07;33.92;36.07;;
64077;Laerm;51039;49.696;10.808;2023-03-16T04:18:35;35.07;33.83;36.15;;
64077;Laerm;51039;49.696;10.808;2023-03-16T04:21:07;35.08;33.74;36.18;;
64077;Laerm;51039;49.696;10.808;2023-03-16T04:23:37;35.08;33.86;36.15;;
64077;Laerm;51039;49.696;10.808;2023-03-16T04:26:02;35.09;33.79;36.15;;
64077;Laerm;51039;49.696;10.808;2023-03-16T04:28:27;35.08;33.90;36.19;;
64077;Laerm;51039;49.696;10.808;2023-03-16T04:30:53;35.08;33.93;36.22;;
64077;Laerm;51039;49.696;10.808;2023-03-16T04:33:19;35.07;33.89;36.26;;
64077;Laerm;51039;49.696;10.808;2023-03-16T04:35:46;35.08;33.77;36.21;;
64077;Laerm;51039;49.696;10.808;2023-03-16T04:38:11;35.08;33.83;36.27;;
64077;Laerm;51039;49.696;10.808;2023-03-16T04:40:37;35.09;33.97;36.38;;
64077;Laerm;51039;49.696;10.808;2023-03-16T04:43:02;35.09;33.83;36.30;;
64077;Laerm;51039;49.696;10.808;2023-03-16T04:45:28;35.09;33.86;36.09;;
64077;Laerm;51039;49.696;10.808;2023-03-16T04:47:53;35.10;34.00;36.17;;
64077;Laerm;51039;49.696;10.808;2023-03-16T04:50:18;35.10;33.95;36.32;;
64077;Laerm;51039;49.696;10.808;2023-03-16T04:52:44;35.11;33.92;36.26;;
64077;Laerm;51039;49.696;10.808;2023-03-16T04:55:09;35.11;33.81;36.18;;
64077;Laerm;51039;49.696;10.808;2023-03-16T04:57:34;35.11;33.85;36.20;;
64077;Laerm;51039;49.696;10.808;2023-03-16T05:00:00;35.11;33.89;36.24;;
64077;Laerm;51039;49.696;10.808;2023-03-16T05:02:26;35.11;33.74;36.18;;
64077;Laerm;51039;49.696;10.808;2023-03-16T05:04:51;35.12;33.92;36.15;;
64077;Laerm;51039;49.696;10.808;2023-03-16T05:07:17;35.12;33.87;36.38;;
64077;Laerm;51039;49.696;10.808;2023-03-16T05:09:42;35.12;33.95;36.10;;
64077;Laerm;51039;49.696;10.808;2023-03-16T05:12:08;35.13;33.89;36.30;;
64077;Laerm;51039;49.696;10.808;2023-03-16T05:14:33;35.12;33.89;36.30;;
64077;Laerm;51039;49.696;10.808;2023-03-16T05:17:00;35.13;33.91;36.25;;
64077;Laerm;51039;49.696;10.808;2023-03-16T05:19:28;35.14;33.96;36.37;;
64077;Laerm;51039;49.696;10.808;2023-03-16T05:21:54;35.14;33.87;36.25;;
64077;Laerm;51039;49.696;10.808;2023-03-16T05:24:21;35.15;34.03;36.32;;
64077;Laerm;51039;49.696;10.808;2023-03-16T05:26:48;35.14;33.85;36.35;;
64077;Laerm;51039;49.696;10.808;2023-03-16T05:29:13;35.16;34.04;36.38;;
64077;Laerm;51039;49.696;10.808;2023-03-16T05:31:38;35.14;33.95;36.28;;
64077;Laerm;51039;49.696;10.808;2023-03-16T05:34:04;35.13;33.94;36.31;;
64077;Laerm;51039;49.696;10.808;2023-03-16T05:36:29;35.13;34.05;36.24;;
64077;Laerm;51039;49.696;10.808;2023-03-16T05:38:54;35.12;33.79;36.19;;
64077;Laerm;51039;49.696;10.808;2023-03-16T05:41:20;35.14;33.91;36.29;;
64077;Laerm;51039;49.696;10.808;2023-03-16T05:43:46;35.12;33.84;36.48;;
64077;Laerm;51039;49.696;10.808;2023-03-16T05:46:13;35.11;33.88;36.44;;
64077;Laerm;51039;49.696;10.808;2023-03-16T05:48:38;35.09;33.79;36.22;;
64077;Laerm;51039;49.696;10.808;2023-03-16T05:51:04;35.09;33.94;36.37;;
64077;Laerm;51039;49.696;10.808;2023-03-16T05:53:31;35.07;33.84;36.07;;
64077;Laerm;51039;49.696;10.808;2023-03-16T05:55:56;35.06;33.91;36.15;;
64077;Laerm;51039;49.696;10.808;2023-03-16T05:58:21;35.04;33.87;36.02;;
64077;Laerm;51039;49.696;10.808;2023-03-16T06:00:47;35.03;33.78;36.30;;
64077;Laerm;51039;49.696;10.808;2023-03-16T06:03:14;35.02;33.78;36.19;;
64077;Laerm;51039;49.696;10.808;2023-03-16T06:05:39;35.00;33.87;36.28;;
64077;Laerm;51039;49.696;10.808;2023-03-16T06:08:05;34.98;33.60;36.10;;
64077;Laerm;51039;49.696;10.808;2023-03-16T06:10:31;34.96;33.68;36.01;;
64077;Laerm;51039;49.696;10.808;2023-03-16T06:12:56;34.93;33.60;36.18;;
64077;Laerm;51039;49.696;10.808;2023-03-16T06:15:21;34.92;33.77;36.12;;
64077;Laerm;51039;49.696;10.808;2023-03-16T06:17:51;34.88;33.66;35.95;;
64077;Laerm;51039;49.696;10.808;2023-03-16T06:20:16;34.84;33.81;36.04;;
64077;Laerm;51039;49.696;10.808;2023-03-16T06:22:42;34.82;33.65;35.93;;
64077;Laerm;51039;49.696;10.808;2023-03-16T06:25:10;34.77;33.33;35.94;;
64077;Laerm;51039;49.696;10.808;2023-03-16T06:27:36;34.73;33.66;35.93;;
64077;Laerm;51039;49.696;10.808;2023-03-16T06:30:02;34.70;33.39;35.88;;
64077;Laerm;51039;49.696;10.808;2023-03-16T06:32:28;34.68;33.38;35.87;;
64077;Laerm;51039;49.696;10.808;2023-03-16T06:34:53;34.67;33.37;35.76;;
64077;Laerm;51039;49.696;10.808;2023-03-16T06:37:18;34.66;33.49;35.93;;
64077;Laerm;51039;49.696;10.808;2023-03-16T06:39:44;34.62;33.41;35.67;;
64077;Laerm;51039;49.696;10.808;2023-03-16T06:42:09;34.58;33.26;35.73;;
64077;Laerm;51039;49.696;10.808;2023-03-16T06:44:35;34.54;33.21;35.64;;
64077;Laerm;51039;49.696;10.808;2023-03-16T06:47:01;34.52;33.24;35.84;;
64077;Laerm;51039;49.696;10.808;2023-03-16T06:49:28;34.52;33.32;35.57;;
64077;Laerm;51039;49.696;10.808;2023-03-16T06:51:53;34.52;33.29;35.73;;
64077;Laerm;51039;49.696;10.808;2023-03-16T06:54:19;34.53;33.35;35.59;;
64077;Laerm;51039;49.696;10.808;2023-03-16T06:56:44;34.56;33.48;36.02;;
64077;Laerm;51039;49.696;10.808;2023-03-16T06:59:09;34.62;33.14;35.76;;
64077;Laerm;51039;49.696;10.808;2023-03-16T07:01:35;34.71;33.40;35.78;;
64077;Laerm;51039;49.696;10.808;2023-03-16T07:04:00;34.88;33.69;36.08;;
64077;Laerm;51039;49.696;10.808;2023-03-16T07:06:26;35.15;33.76;36.25;;
64077;Laerm;51039;49.696;10.808;2023-03-16T07:08:51;35.44;33.97;36.59;;
64077;Laerm;51039;49.696;10.808;2023-03-16T07:11:16;35.80;34.53;36.85;;
64077;Laerm;51039;49.696;10.808;2023-03-16T07:13:42;36.15;34.91;37.48;;
64077;Laerm;51039;49.696;10.808;2023-03-16T07:16:08;36.83;35.56;38.21;;
64077;Laerm;51039;49.696;10.808;2023-03-16T07:18:33;37.95;36.20;39.59;;
64077;Laerm;51039;49.696;10.808;2023-03-16T07:21:02;40.80;37.91;44.79;;
64077;Laerm;51039;49.696;10.808;2023-03-16T07:23:28;43.98;41.72;49.40;;
64077;Laerm;51039;49.696;10.808;2023-03-16T07:25:53;45.07;43.25;50.07;;
64077;Laerm;51039;49.696;10.808;2023-03-16T07:28:18;45.20;43.46;49.45;;
64077;Laerm;51039;49.696;10.808;2023-03-16T07:30:44;44.91;43.24;47.99;;
64077;Laerm;51039;49.696;10.808;2023-03-16T07:33:10;45.10;42.91;48.58;;
64077;Laerm;51039;49.696;10.808;2023-03-16T07:35:36;44.99;42.74;49.54;;
64077;Laerm;51039;49.696;10.808;2023-03-16T07:38:01;44.98;42.66;50.09;;
64077;Laerm;51039;49.696;10.808;2023-03-16T07:40:27;44.49;42.73;49.63;;
64077;Laerm;51039;49.696;10.808;2023-03-16T07:42:52;44.93;42.74;52.48;;
64077;Laerm;51039;49.696;10.808;2023-03-16T07:45:18;44.68;42.25;48.85;;
64077;Laerm;51039;49.696;10.808;2023-03-16T07:47:43;43.85;41.89;48.63;;
64077;Laerm;51039;49.696;10.808;2023-03-16T07:50:10;43.61;41.92;46.96;;
64077;Laerm;51039;49.696;10.808;2023-03-16T07:52:35;43.60;41.49;46.93;;
64077;Laerm;51039;49.696;10.808;2023-03-16T07:55:01;43.74;41.79;47.07;;
64077;Laerm;51039;49.696;10.808;2023-03-16T07:57:26;43.22;41.58;45.72;;
64077;Laerm;51039;49.696;10.808;2023-03-16T07:59:51;43.32;41.39;46.61;;
64077;Laerm;51039;49.696;10.808;2023-03-16T08:02:18;43.01;41.19;46.14;;
64077;Laerm;51039;49.696;10.808;2023-03-16T08:04:44;42.77;40.96;45.93;;
64077;Laerm;51039;49.696;10.808;2023-03-16T08:07:11;42.82;41.05;47.70;;
64077;Laerm;51039;49.696;10.808;2023-03-16T08:09:36;42.78;41.01;46.47;;
64077;Laerm;51039;49.696;10.808;2023-03-16T08:12:03;42.63;41.02;45.71;;
64077;Laerm;51039;49.696;10.808;2023-03-16T08:14:30;42.47;40.92;45.97;;
64077;Laerm;51039;49.696;10.808;2023-03-16T08:16:55;42.23;40.67;44.10;;
64077;Laerm;51039;49.696;10.808;2023-03-16T08:19:20;42.38;40.73;44.59;;
64077;Laerm;51039;49.696;10.808;2023-03-16T08:21:46;42.46;40.86;44.73;;
64077;Laerm;51039;49.696;10.808;2023-03-16T08:24:11;42.12;40.69;43.93;;
64077;Laerm;51039;49.696;10.808;2023-03-16T08:26:36;41.89;40.33;43.25;;
64077;Laerm;51039;49.696;10.808;2023-03-16T08:29:02;41.98;40.39;43.82;;
64077;Laerm;51039;49.696;10.808;2023-03-16T08:31:28;42.15;40.64;44.70;;
64077;Laerm;51039;49.696;10.808;2023-03-16T08:33:55;42.04;40.53;43.53;;
64077;Laerm;51039;49.696;10.808;2023-03-16T08:36:21;42.22;40.39;43.66;;
64077;Laerm;51039;49.696;10.808;2023-03-16T08:38:47;42.16;40.54;45.02;;
64077;Laerm;51039;49.696;10.808;2023-03-16T08:41:12;42.05;40.55;44.10;;
64077;Laerm;51039;49.696;10.808;2023-03-16T08:43:41;42.11;40.18;44.57;;
64077;Laerm;51039;49.696;10.808;2023-03-16T08:46:06;41.88;40.29;44.24;;
64077;Laerm;51039;49.696;10.808;2023-03-16T08:48:32;42.04;40.40;43.92;;
64077;Laerm;51039;49.696;10.808;2023-03-16T08:51:01;42.11;40.68;43.98;;
64077;Laerm;51039;49.696;10.808;2023-03-16T08:53:27;42.05;40.03;43.80;;
64077;Laerm;51039;49.696;10.808;2023-03-16T08:56:03;41.92;40.16;43.35;;
64077;Laerm;51039;49.696;10.808;2023-03-16T08:58:29;41.81;40.38;43.39;;
64077;Laerm;51039;49.696;10.808;2023-03-16T09:00:56;41.89;40.48;43.59;;
64077;Laerm;51039;49.696;10.808;2023-03-16T09:03:21;42.02;40.65;44.08;;
64077;Laerm;51039;49.696;10.808;2023-03-16T09:05:47;41.86;40.47;44.42;;
64077;Laerm;51039;49.696;10.808;2023-03-16T09:08:13;41.90;40.37;44.08;;
64077;Laerm;51039;49.696;10.808;2023-03-16T09:10:38;41.89;40.14;43.75;;
64077;Laerm;51039;49.696;10.808;2023-03-16T09:13:04;41.80;40.30;43.96;;
64077;Laerm;51039;49.696;10.808;2023-03-16T09:15:29;41.84;40.25;44.19;;
64077;Laerm;51039;49.696;10.808;2023-03-16T09:17:55;41.77;40.36;43.26;;
64077;Laerm;51039;49.696;10.808;2023-03-16T09:20:22;41.98;40.29;43.64;;
64077;Laerm;51039;49.696;10.808;2023-03-16T09:22:47;41.83;40.37;44.90;;
64077;Laerm;51039;49.696;10.808;2023-03-16T09:25:13;41.56;40.06;44.58;;
64077;Laerm;51039;49.696;10.808;2023-03-16T09:27:38;41.79;39.96;48.92;;
64077;Laerm;51039;49.696;10.808;2023-03-16T09:30:06;41.54;39.76;43.13;;
64077;Laerm;51039;49.696;10.808;2023-03-16T09:32:32;41.62;40.00;43.50;;
64077;Laerm;51039;49.696;10.808;2023-03-16T09:34:57;41.66;40.27;43.11;;
64077;Laerm;51039;49.696;10.808;2023-03-16T09:37:23;41.79;39.94;44.50;;
64077;Laerm;51039;49.696;10.808;2023-03-16T09:39:50;41.74;40.12;43.85;;
64077;Laerm;51039;49.696;10.808;2023-03-16T09:42:23;41.79;40.27;44.09;;
64077;Laerm;51039;49.696;10.808;2023-03-16T09:47:49;41.54;40.11;42.97;;
64077;Laerm;51039;49.696;10.808;2023-03-16T09:50:22;41.54;39.99;43.40;;
64077;Laerm;51039;49.696;10.808;2023-03-16T09:57:45;41.35;39.90;43.72;;
64077;Laerm;51039;49.696;10.808;2023-03-16T10:00:18;41.41;40.05;42.80;;
64077;Laerm;51039;49.696;10.808;2023-03-16T10:02:54;41.73;40.25;43.85;;
64077;Laerm;51039;49.696;10.808;2023-03-16T10:05:22;42.05;40.16;44.60;;
64077;Laerm;51039;49.696;10.808;2023-03-16T10:08:01;41.83;40.09;43.68;;
64077;Laerm;51039;49.696;10.808;2023-03-16T10:13:04;41.67;39.96;48.44;;
64077;Laerm;51039;49.696;10.808;2023-03-16T10:15:38;41.45;39.99;43.42;;
64077;Laerm;51039;49.696;10.808;2023-03-16T10:18:13;41.36;39.62;43.10;;
64077;Laerm;51039;49.696;10.808;2023-03-16T10:20:40;41.46;39.79;48.81;;
64077;Laerm;51039;49.696;10.808;2023-03-16T10:23:17;41.49;39.83;52.16;;
64077;Laerm;51039;49.696;10.808;2023-03-16T10:28:21;41.35;39.66;43.78;;
64077;Laerm;51039;49.696;10.808;2023-03-16T10:30:49;41.30;39.54;43.02;;
64077;Laerm;51039;49.696;10.808;2023-03-16T10:33:21;41.36;39.94;43.02;;
64077;Laerm;51039;49.696;10.808;2023-03-16T10:38:29;41.27;39.85;43.61;;
64077;Laerm;51039;49.696;10.808;2023-03-16T10:40:58;41.21;39.69;47.15;;
64077;Laerm;51039;49.696;10.808;2023-03-16T10:43:24;41.23;39.54;42.76;;
64077;Laerm;51039;49.696;10.808;2023-03-16T10:45:50;41.31;39.52;43.29;;
64077;Laerm;51039;49.696;10.808;2023-03-16T10:48:18;41.31;39.52;47.41;;
64077;Laerm;51039;49.696;10.808;2023-03-16T10:50:50;40.97;39.48;45.25;;
64077;Laerm;51039;49.696;10.808;2023-03-16T10:53:24;40.86;39.17;43.88;;
64077;Laerm;51039;49.696;10.808;2023-03-16T10:55:59;40.83;39.22;45.41;;
64077;Laerm;51039;49.696;10.808;2023-03-16T10:58:29;41.08;39.52;46.61;;
64077;Laerm;51039;49.696;10.808;2023-03-16T11:00:56;40.96;39.40;43.10;;
64077;Laerm;51039;49.696;10.808;2023-03-16T11:03:30;40.90;39.32;42.47;;
64077;Laerm;51039;49.696;10.808;2023-03-16T11:06:01;41.01;39.49;42.53;;
64077;Laerm;51039;49.696;10.808;2023-03-16T11:08:31;40.82;39.33;44.79;;
64077;Laerm;51039;49.696;10.808;2023-03-16T11:11:22;40.85;39.19;45.03;;
64077;Laerm;51039;49.696;10.808;2023-03-16T11:13:56;40.98;39.46;43.43;;
64077;Laerm;51039;49.696;10.808;2023-03-16T11:16:29;40.86;38.82;45.35;;
64077;Laerm;51039;49.696;10.808;2023-03-16T11:19:00;41.23;39.21;50.75;;
64077;Laerm;51039;49.696;10.808;2023-03-16T11:21:44;40.99;39.13;45.11;;
64077;Laerm;51039;49.696;10.808;2023-03-16T11:24:28;41.03;39.44;44.30;;
64077;Laerm;51039;49.696;10.808;2023-03-16T11:26:57;40.93;39.12;43.83;;
64077;Laerm;51039;49.696;10.808;2023-03-16T11:29:45;40.96;39.53;42.90;;
64077;Laerm;51039;49.696;10.808;2023-03-16T11:32:17;40.98;39.51;42.40;;
64077;Laerm;51039;49.696;10.808;2023-03-16T11:34:45;41.02;39.34;47.95;;
64077;Laerm;51039;49.696;10.808;2023-03-16T11:42:28;40.96;39.40;49.57;;
64077;Laerm;51039;49.696;10.808;2023-03-16T11:45:02;40.91;39.33;43.34;;
64077;Laerm;51039;49.696;10.808;2023-03-16T11:51:18;40.94;39.32;45.67;;
64077;Laerm;51039;49.696;10.808;2023-03-16T11:53:51;40.99;39.39;45.17;;
64077;Laerm;51039;49.696;10.808;2023-03-16T11:56:29;41.11;39.41;42.96;;
64077;Laerm;51039;49.696;10.808;2023-03-16T12:01:44;41.02;39.37;44.12;;
64077;Laerm;51039;49.696;10.808;2023-03-16T12:07:05;41.13;39.53;43.49;;
64077;Laerm;51039;49.696;10.808;2023-03-16T12:12:26;40.79;39.13;42.68;;
64077;Laerm;51039;49.696;10.808;2023-03-16T12:17:44;40.91;39.19;47.06;;
64077;Laerm;51039;49.696;10.808;2023-03-16T12:20:20;40.88;39.11;43.21;;
64077;Laerm;51039;49.696;10.808;2023-03-16T12:22:58;41.06;39.29;50.47;;
64077;Laerm;51039;49.696;10.808;2023-03-16T12:25:31;41.82;39.25;59.46;;
64077;Laerm;51039;49.696;10.808;2023-03-16T12:27:59;40.78;38.99;46.16;;
64077;Laerm;51039;49.696;10.808;2023-03-16T12:44:12;40.91;39.21;52.40;;
64077;Laerm;51039;49.696;10.808;2023-03-16T12:46:47;41.01;39.49;47.44;;
64077;Laerm;51039;49.696;10.808;2023-03-16T12:49:18;40.96;39.19;48.46;;
64077;Laerm;51039;49.696;10.808;2023-03-16T12:51:45;40.82;39.11;49.96;;
64077;Laerm;51039;49.696;10.808;2023-03-16T12:54:20;40.71;38.94;45.63;;
64077;Laerm;51039;49.696;10.808;2023-03-16T12:56:47;40.81;39.18;48.34;;
64077;Laerm;51039;49.696;10.808;2023-03-16T12:59:19;41.00;39.44;47.44;;
64077;Laerm;51039;49.696;10.808;2023-03-16T13:01:49;40.99;39.52;48.57;;
64077;Laerm;51039;49.696;10.808;2023-03-16T13:04:20;40.79;39.13;46.27;;
64077;Laerm;51039;49.696;10.808;2023-03-16T13:07:00;40.87;39.31;47.71;;
64077;Laerm;51039;49.696;10.808;2023-03-16T13:09:29;40.92;39.26;45.88;;
64077;Laerm;51039;49.696;10.808;2023-03-16T13:11:57;40.98;39.53;42.57;;
64077;Laerm;51039;49.696;10.808;2023-03-16T13:14:34;41.18;39.38;53.00;;
64077;Laerm;51039;49.696;10.808;2023-03-16T13:17:26;40.96;39.36;46.65;;
64077;Laerm;51039;49.696;10.808;2023-03-16T13:22:47;40.83;38.98;44.54;;
64077;Laerm;51039;49.696;10.808;2023-03-16T13:27:57;40.85;39.23;46.44;;
64077;Laerm;51039;49.696;10.808;2023-03-16T13:33:00;40.96;39.28;43.59;;
64077;Laerm;51039;49.696;10.808;2023-03-16T13:35:31;41.08;39.38;42.93;;
64077;Laerm;51039;49.696;10.808;2023-03-16T13:38:04;40.93;39.15;45.56;;
64077;Laerm;51039;49.696;10.808;2023-03-16T13:40:30;40.92;39.19;43.35;;
64077;Laerm;51039;49.696;10.808;2023-03-16T13:42:56;40.99;39.23;46.42;;
64077;Laerm;51039;49.696;10.808;2023-03-16T13:45:30;40.86;39.14;43.75;;
64077;Laerm;51039;49.696;10.808;2023-03-16T13:47:57;41.04;39.50;46.52;;
64077;Laerm;51039;49.696;10.808;2023-03-16T13:50:22;40.98;39.42;42.58;;
64077;Laerm;51039;49.696;10.808;2023-03-16T13:52:57;40.95;39.30;50.05;;
64077;Laerm;51039;49.696;10.808;2023-03-16T13:55:37;40.98;39.25;47.34;;
64077;Laerm;51039;49.696;10.808;2023-03-16T13:58:03;41.07;39.57;54.52;;
64077;Laerm;51039;49.696;10.808;2023-03-16T14:00:35;41.04;39.23;50.89;;
64077;Laerm;51039;49.696;10.808;2023-03-16T14:03:13;41.07;39.36;52.11;;
64077;Laerm;51039;49.696;10.808;2023-03-16T14:05:40;40.82;39.16;47.01;;
64077;Laerm;51039;49.696;10.808;2023-03-16T14:08:14;40.84;39.40;42.94;;
64077;Laerm;51039;49.696;10.808;2023-03-16T14:10:41;40.77;39.17;44.73;;
64077;Laerm;51039;49.696;10.808;2023-03-16T14:15:53;40.90;39.32;44.03;;
64077;Laerm;51039;49.696;10.808;2023-03-16T14:18:30;40.76;39.20;46.63;;
64077;Laerm;51039;49.696;10.808;2023-03-16T14:20:56;40.81;39.30;47.07;;
64077;Laerm;51039;49.696;10.808;2023-03-16T14:23:24;40.87;39.45;42.53;;
64077;Laerm;51039;49.696;10.808;2023-03-16T14:25:51;40.90;39.33;42.61;;
64077;Laerm;51039;49.696;10.808;2023-03-16T14:28:19;40.94;39.41;42.40;;
64077;Laerm;51039;49.696;10.808;2023-03-16T14:31:17;40.95;39.35;45.28;;
64077;Laerm;51039;49.696;10.808;2023-03-16T14:33:40;40.84;39.28;42.93;;
64077;Laerm;51039;49.696;10.808;2023-03-16T14:36:17;40.81;39.05;44.38;;
64077;Laerm;51039;49.696;10.808;2023-03-16T14:38:44;40.79;39.28;45.82;;
64077;Laerm;51039;49.696;10.808;2023-03-16T14:41:24;40.93;39.27;45.31;;
64077;Laerm;51039;49.696;10.808;2023-03-16T14:43:56;40.89;39.36;43.35;;
64077;Laerm;51039;49.696;10.808;2023-03-16T14:46:33;40.99;39.20;42.43;;